createdAt,value
2023-05-14T00:07:02.505Z,5.03
2023-05-14T00:13:50.648Z,4.88
2023-05-14T00:17:08.255Z,5.78
2023-05-14T00:23:39.616Z,6.10
2023-05-14T00:26:54.195Z,7.13
2023-05-14T00:30:18.826Z,6.18
2023-05-14T00:37:19.721Z,5.95
2023-05-14T00:43:54.754Z,5.30
2023-05-14T00:47:14.035Z,5.32
2023-05-14T00:53:40.046Z,4.60
2023-05-14T00:56:31.134Z,5.63
2023-05-14T00:59:19.916Z,6.85
2023-05-14T01:02:30.966Z,6.82
2023-05-14T01:05:20.090Z,7.10
2023-05-14T01:08:21.771Z,7.22
2023-05-14T01:11:21.597Z,6.90
2023-05-14T01:14:24.455Z,6.85
2023-05-14T01:20:02.882Z,7.30
2023-05-14T01:22:48.745Z,7.95
2023-05-14T01:25:38.268Z,7.97
2023-05-14T01:28:28.110Z,6.87
2023-05-14T01:31:35.419Z,7.88
2023-05-14T01:34:18.061Z,7.60
2023-05-14T01:37:04.546Z,7.47
2023-05-14T01:39:48.014Z,7.15
2023-05-14T01:42:23.556Z,7.55
2023-05-14T01:45:03.749Z,7.30
2023-05-14T01:47:55.270Z,7.75
2023-05-14T01:50:46.642Z,6.90
2023-05-14T01:53:34.478Z,7.50
2023-05-14T01:56:27.261Z,7.68
2023-05-14T01:59:31.815Z,7.78
2023-05-14T02:02:36.689Z,6.72
2023-05-14T02:05:57.864Z,9.98
2023-05-14T02:09:07.265Z,9.65
2023-05-14T02:12:12.053Z,7.82
2023-05-14T02:14:46.999Z,7.90
2023-05-14T02:17:42.280Z,8.05
2023-05-14T02:20:24.907Z,8.20
2023-05-14T02:23:41.653Z,8.52
2023-05-14T02:26:36.679Z,9.05
2023-05-14T02:29:48.792Z,8.85
2023-05-14T02:32:40.325Z,8.55
2023-05-14T02:35:31.131Z,9.00
2023-05-14T02:38:10.865Z,8.77
2023-05-14T02:40:59.871Z,9.15
2023-05-14T02:43:47.708Z,8.70
2023-05-14T02:46:39.986Z,9.07
2023-05-14T02:49:14.835Z,9.88
2023-05-14T02:51:47.351Z,10.27
2023-05-14T02:54:38.682Z,8.43
2023-05-14T02:57:24.577Z,9.10
2023-05-14T03:00:12.445Z,8.23
2023-05-14T03:02:59.814Z,8.15
2023-05-14T03:06:00.853Z,8.95
2023-05-14T03:09:09.641Z,8.93
2023-05-14T03:12:27.288Z,9.05
2023-05-14T03:22:19.556Z,9.30
2023-05-14T03:24:54.542Z,8.95
2023-05-14T03:27:21.637Z,9.23
2023-05-14T03:29:48.829Z,9.35
2023-05-14T03:32:15.895Z,9.73
2023-05-14T03:34:44.914Z,9.90
2023-05-14T03:37:12.255Z,10.25
2023-05-14T03:39:39.380Z,9.45
2023-05-14T03:42:06.785Z,9.68
2023-05-14T03:44:33.788Z,9.30
2023-05-14T03:47:00.762Z,8.82
2023-05-14T03:49:28.160Z,9.38
2023-05-14T03:51:56.195Z,9.73
2023-05-14T03:54:23.269Z,8.77
2023-05-14T03:56:50.386Z,9.05
2023-05-14T03:59:17.485Z,8.93
2023-05-14T04:01:44.813Z,9.10
2023-05-14T04:04:12.082Z,9.07
2023-05-14T04:06:39.259Z,8.88
2023-05-14T04:09:06.521Z,8.88
2023-05-14T04:11:33.544Z,9.55
2023-05-14T04:14:00.568Z,9.27
2023-05-14T04:16:27.631Z,9.45
2023-05-14T04:18:54.818Z,8.90
2023-05-14T04:21:21.867Z,9.55
2023-05-14T04:23:49.015Z,9.10
2023-05-14T04:26:16.207Z,9.52
2023-05-14T04:28:43.314Z,9.18
2023-05-14T04:31:10.646Z,9.27
2023-05-14T04:33:37.668Z,9.18
2023-05-14T04:36:05.954Z,9.70
2023-05-14T04:38:33.117Z,9.48
2023-05-14T04:41:00.390Z,9.57
2023-05-14T04:43:27.431Z,8.90
2023-05-14T04:45:54.691Z,8.80
2023-05-14T04:48:21.998Z,8.60
2023-05-14T04:50:49.061Z,9.77
2023-05-14T04:53:16.120Z,9.35
2023-05-14T04:55:43.202Z,9.48
2023-05-14T04:58:10.252Z,9.38
2023-05-14T05:00:37.723Z,9.00
2023-05-14T05:03:04.888Z,9.57
2023-05-14T05:05:32.030Z,9.90
2023-05-14T05:07:59.179Z,9.68
2023-05-14T05:10:26.702Z,9.57
2023-05-14T05:12:54.087Z,9.50
2023-05-14T05:15:21.130Z,9.93
2023-05-14T05:17:48.380Z,10.13
2023-05-14T05:20:15.758Z,12.10
2023-05-14T05:22:42.869Z,12.82
2023-05-14T05:25:09.980Z,11.10
2023-05-14T05:27:37.069Z,10.48
2023-05-14T05:30:04.697Z,9.98
2023-05-14T05:32:31.921Z,9.32
2023-05-14T05:34:59.016Z,9.82
2023-05-14T05:37:26.196Z,9.68
2023-05-14T05:39:54.246Z,9.75
2023-05-14T05:42:21.338Z,9.60
2023-05-14T05:44:48.590Z,9.90
2023-05-14T05:47:16.087Z,10.00
2023-05-14T05:49:43.252Z,11.15
2023-05-14T05:52:10.580Z,10.63
2023-05-14T05:54:39.965Z,11.27
2023-05-14T05:57:07.359Z,10.52
2023-05-14T05:59:34.698Z,10.38
2023-05-14T06:02:01.908Z,10.18
2023-05-14T06:04:29.081Z,9.57
2023-05-14T06:06:56.211Z,9.30
2023-05-14T06:09:23.381Z,9.07
2023-05-14T06:11:50.578Z,8.15
2023-05-14T06:14:17.824Z,8.18
2023-05-14T06:16:45.147Z,7.93
2023-05-14T06:19:12.473Z,7.57
2023-05-14T06:21:39.944Z,7.03
2023-05-14T06:24:07.610Z,7.82
2023-05-14T06:26:34.617Z,8.60
2023-05-14T06:29:01.847Z,9.23
2023-05-14T06:31:29.061Z,8.65
2023-05-14T06:33:56.324Z,8.82
2023-05-14T06:36:23.397Z,8.40
2023-05-14T06:38:50.652Z,7.55
2023-05-14T06:41:18.267Z,8.57
2023-05-14T06:43:45.291Z,7.53
2023-05-14T06:46:12.383Z,7.50
2023-05-14T06:48:39.481Z,7.35
2023-05-14T06:51:06.743Z,7.45
2023-05-14T06:53:33.880Z,6.70
2023-05-14T06:56:00.961Z,6.88
2023-05-14T06:58:28.113Z,6.78
2023-05-14T07:00:55.248Z,7.22
2023-05-14T07:03:22.740Z,7.10
2023-05-14T07:05:50.034Z,6.65
2023-05-14T07:08:17.131Z,6.78
2023-05-14T07:10:44.243Z,6.90
2023-05-14T07:13:11.387Z,7.90
2023-05-14T07:15:38.607Z,6.35
2023-05-14T07:18:05.946Z,5.85
2023-05-14T07:20:33.081Z,5.75
2023-05-14T07:23:00.238Z,5.32
2023-05-14T07:25:27.524Z,5.68
2023-05-14T07:27:54.615Z,5.07
2023-05-14T07:30:22.073Z,4.50
2023-05-14T07:32:49.302Z,5.00
2023-05-14T07:35:16.685Z,4.97
2023-05-14T07:37:43.853Z,5.03
2023-05-14T07:40:11.277Z,5.07
2023-05-14T07:42:38.350Z,5.25
2023-05-14T07:45:05.881Z,4.43
2023-05-14T07:47:33.301Z,5.30
2023-05-14T07:50:00.641Z,4.93
2023-05-14T07:52:27.871Z,5.40
2023-05-14T07:54:55.384Z,4.90
2023-05-14T07:57:22.936Z,4.93
2023-05-14T07:59:50.358Z,4.20
2023-05-14T08:02:17.914Z,4.13
2023-05-14T08:04:45.475Z,4.68
2023-05-14T08:07:12.642Z,4.25
2023-05-14T08:09:40.196Z,4.10
2023-05-14T08:12:07.847Z,3.92
2023-05-14T08:14:35.024Z,4.60
2023-05-14T08:17:02.295Z,4.38
2023-05-14T08:19:29.445Z,4.65
2023-05-14T08:21:56.761Z,4.30
2023-05-14T08:24:23.864Z,3.72
2023-05-14T08:26:51.070Z,3.85
2023-05-14T08:29:18.220Z,3.47
2023-05-14T08:31:45.334Z,3.92
2023-05-14T08:34:12.510Z,3.97
2023-05-14T08:36:40.061Z,4.65
2023-05-14T08:39:10.196Z,4.05
2023-05-14T08:41:38.031Z,4.63
2023-05-14T08:44:13.544Z,4.82
2023-05-14T08:46:41.340Z,4.68
2023-05-14T08:49:30.234Z,4.35
2023-05-14T08:51:58.031Z,4.32
2023-05-14T08:54:27.279Z,4.40
2023-05-14T08:56:54.751Z,4.00
2023-05-14T08:59:22.170Z,4.57
2023-05-14T09:01:53.081Z,4.25
2023-05-14T09:04:22.470Z,4.22
2023-05-14T09:06:51.326Z,3.97
2023-05-14T09:09:18.830Z,4.40
2023-05-14T09:11:50.930Z,3.75
2023-05-14T09:14:18.268Z,3.15
2023-05-14T09:16:47.179Z,3.92
2023-05-14T09:19:15.985Z,3.58
2023-05-14T09:21:45.631Z,3.20
2023-05-14T09:24:24.190Z,3.25
2023-05-14T09:26:53.693Z,3.30
2023-05-14T09:29:21.166Z,3.75
2023-05-14T09:31:51.555Z,2.88
2023-05-14T09:34:26.255Z,3.28
2023-05-14T09:37:07.673Z,3.67
2023-05-14T09:39:39.466Z,3.20
2023-05-14T09:42:06.921Z,2.70
2023-05-14T09:44:36.497Z,2.90
2023-05-14T09:47:04.520Z,2.92
2023-05-14T09:49:31.666Z,3.10
2023-05-14T09:51:58.746Z,2.83
2023-05-14T09:54:26.707Z,3.03
2023-05-14T09:56:55.624Z,2.58
2023-05-14T09:59:23.030Z,2.85
2023-05-14T10:01:51.404Z,2.97
2023-05-14T10:04:19.217Z,2.75
2023-05-14T10:06:49.985Z,3.13
2023-05-14T10:09:19.949Z,3.40
2023-05-14T10:11:52.869Z,2.70
2023-05-14T10:14:36.314Z,2.80
2023-05-14T10:17:05.121Z,2.72
2023-05-14T10:19:35.619Z,3.00
2023-05-14T10:24:34.900Z,2.78
2023-05-14T10:27:02.557Z,2.80
2023-05-14T10:29:37.796Z,2.50
2023-05-14T10:32:07.440Z,2.50
2023-05-14T10:34:55.861Z,2.55
2023-05-14T10:37:26.794Z,2.20
2023-05-14T10:40:03.255Z,2.67
2023-05-14T10:42:43.486Z,2.47
2023-05-14T10:47:41.059Z,2.42
2023-05-14T10:50:11.222Z,2.60
2023-05-14T10:55:07.945Z,2.60
2023-05-14T10:57:38.503Z,2.40
2023-05-14T11:00:10.952Z,2.70
2023-05-14T11:02:39.815Z,2.40
2023-05-14T11:05:14.363Z,2.53
2023-05-14T11:07:49.649Z,2.15
2023-05-14T11:10:19.292Z,2.03
2023-05-14T11:12:48.598Z,2.63
2023-05-14T11:15:21.544Z,2.20
2023-05-14T11:17:50.596Z,2.22
2023-05-14T11:20:18.940Z,2.22
2023-05-14T11:22:48.426Z,2.05
2023-05-14T11:25:15.929Z,2.23
2023-05-14T11:27:47.814Z,2.05
2023-05-14T11:30:20.026Z,2.10
2023-05-14T11:32:48.584Z,2.38
2023-05-14T11:35:17.246Z,2.50
2023-05-14T11:37:51.243Z,2.53
2023-05-14T11:40:19.231Z,2.17
2023-05-14T11:42:46.442Z,2.17
2023-05-14T11:45:14.863Z,2.55
2023-05-14T11:47:42.952Z,2.20
2023-05-14T11:50:11.359Z,2.30
2023-05-14T11:52:41.256Z,2.60
2023-05-14T11:55:12.910Z,2.60
2023-05-14T11:57:41.359Z,2.30
2023-05-14T12:00:13.667Z,2.42
2023-05-14T12:02:41.240Z,2.40
2023-05-14T12:05:09.384Z,2.58
2023-05-14T12:07:36.570Z,2.70
2023-05-14T12:10:04.342Z,2.55
2023-05-14T12:12:36.614Z,2.58
2023-05-14T12:15:14.433Z,2.35
2023-05-14T12:17:41.811Z,2.67
2023-05-14T12:20:13.801Z,2.40
2023-05-14T12:22:42.516Z,2.80
2023-05-14T12:25:13.945Z,2.30
2023-05-14T12:27:41.920Z,2.60
2023-05-14T12:32:41.271Z,2.00
2023-05-14T12:35:09.244Z,2.08
2023-05-14T12:37:37.820Z,2.20
2023-05-14T12:40:09.377Z,2.70
2023-05-14T12:42:37.199Z,2.50
2023-05-14T12:45:07.436Z,2.65
2023-05-14T12:50:02.381Z,2.50
2023-05-14T12:54:59.882Z,2.67
2023-05-14T12:57:27.976Z,2.40
2023-05-14T12:59:56.277Z,2.33
2023-05-14T13:02:23.426Z,2.45
2023-05-14T13:04:50.559Z,2.83
2023-05-14T13:07:17.582Z,2.42
2023-05-14T13:09:44.680Z,2.33
2023-05-14T13:12:11.855Z,2.58
2023-05-14T13:14:38.956Z,2.55
2023-05-14T13:17:08.206Z,2.35
2023-05-14T13:19:36.365Z,2.43
2023-05-14T13:22:03.816Z,2.22
2023-05-14T13:24:31.031Z,2.55
2023-05-14T13:26:58.419Z,2.78
2023-05-14T13:29:25.518Z,2.15
2023-05-14T13:31:53.428Z,2.15
2023-05-14T13:34:20.499Z,2.67
2023-05-14T13:36:49.499Z,2.67
2023-05-14T13:39:16.724Z,1.98
2023-05-14T13:41:43.881Z,2.17
2023-05-14T13:44:10.995Z,2.35
2023-05-14T13:46:38.268Z,1.92
2023-05-14T13:49:05.654Z,2.67
2023-05-14T13:51:32.861Z,2.05
2023-05-14T13:54:00.283Z,2.20
2023-05-14T13:56:27.433Z,2.20
2023-05-14T13:58:54.683Z,2.28
2023-05-14T14:01:23.648Z,2.20
2023-05-14T14:03:50.947Z,2.00
2023-05-14T14:06:18.739Z,2.05
2023-05-14T14:08:46.053Z,2.08
2023-05-14T14:11:13.979Z,2.15
2023-05-14T14:13:42.590Z,1.95
2023-05-14T14:16:10.905Z,2.10
2023-05-14T14:18:38.307Z,1.98
2023-05-14T14:21:05.368Z,2.03
2023-05-14T14:23:32.582Z,2.00
2023-05-14T14:26:01.133Z,1.70
2023-05-14T14:28:28.162Z,1.90
2023-05-14T14:30:55.515Z,1.83
2023-05-14T14:33:22.657Z,2.10
2023-05-14T14:35:49.761Z,1.70
2023-05-14T14:38:16.871Z,1.70
2023-05-14T14:40:44.040Z,1.70
2023-05-14T14:43:11.223Z,2.05
2023-05-14T14:45:38.580Z,1.80
2023-05-14T14:48:34.527Z,1.90
2023-05-14T14:51:01.843Z,1.85
2023-05-14T14:53:29.927Z,1.90
2023-05-14T14:55:57.857Z,1.73
2023-05-14T14:58:25.076Z,1.88
2023-05-14T15:00:54.864Z,1.90
2023-05-14T15:03:23.439Z,2.10
2023-05-14T15:05:52.501Z,2.00
2023-05-14T15:08:21.210Z,1.77
2023-05-14T15:10:48.711Z,1.90
2023-05-14T15:13:16.000Z,1.67
2023-05-14T15:15:43.623Z,1.52
2023-05-14T15:18:11.120Z,1.77
2023-05-14T15:20:38.250Z,1.60
2023-05-14T15:23:05.462Z,1.80
2023-05-14T15:25:33.263Z,2.03
2023-05-14T15:28:00.962Z,1.75
2023-05-14T15:30:28.492Z,1.80
2023-05-14T15:32:56.044Z,2.00
2023-05-14T15:35:24.588Z,2.20
2023-05-14T15:37:52.287Z,1.70
2023-05-14T15:40:19.825Z,1.88
2023-05-14T15:42:47.194Z,2.05
2023-05-14T15:45:14.697Z,1.70
2023-05-14T15:47:42.007Z,1.67
2023-05-14T15:50:09.384Z,1.80
2023-05-14T15:52:36.754Z,1.80
2023-05-14T15:55:06.299Z,1.83
2023-05-14T15:57:33.683Z,1.90
2023-05-14T16:00:00.768Z,1.65
2023-05-14T16:02:30.684Z,1.70
2023-05-14T16:04:57.913Z,1.88
2023-05-14T16:07:25.104Z,1.65
2023-05-14T16:09:52.274Z,1.90
2023-05-14T16:12:19.412Z,2.60
2023-05-14T16:14:46.701Z,2.05
2023-05-14T16:17:14.070Z,1.90
2023-05-14T16:19:41.566Z,1.80
2023-05-14T16:22:08.726Z,2.00
2023-05-14T16:24:36.478Z,2.00
2023-05-14T16:27:04.259Z,2.00
2023-05-14T16:29:32.431Z,1.90
2023-05-14T16:32:00.324Z,1.90
2023-05-14T16:34:28.365Z,2.15
2023-05-14T16:36:55.599Z,1.80
2023-05-14T16:39:23.316Z,1.92
2023-05-14T16:41:53.251Z,1.77
2023-05-14T16:44:21.807Z,1.95
2023-05-14T16:46:49.223Z,1.90
2023-05-14T16:49:17.112Z,1.90
2023-05-14T16:51:44.998Z,1.95
2023-05-14T16:54:12.272Z,1.60
2023-05-14T16:56:39.504Z,1.98
2023-05-14T16:59:07.737Z,1.80
2023-05-14T17:01:35.552Z,1.80
2023-05-14T17:04:02.838Z,1.60
2023-05-14T17:06:29.998Z,1.98
2023-05-14T17:08:57.049Z,2.00
2023-05-14T17:11:24.150Z,2.03
2023-05-14T17:13:51.402Z,1.90
2023-05-14T17:16:19.974Z,1.73
2023-05-14T17:18:47.343Z,2.33
2023-05-14T17:21:14.617Z,1.95
2023-05-14T17:23:42.704Z,2.25
2023-05-14T17:26:11.295Z,2.00
2023-05-14T17:28:38.365Z,2.20
2023-05-14T17:31:05.659Z,2.58
2023-05-14T17:33:32.837Z,2.30
2023-05-14T17:36:00.569Z,2.20
2023-05-14T17:38:27.667Z,1.95
2023-05-14T17:40:54.854Z,1.83
2023-05-14T17:43:21.966Z,2.00
2023-05-14T17:48:20.087Z,2.08
2023-05-14T17:50:47.327Z,2.22
2023-05-14T17:53:14.695Z,2.03
2023-05-14T17:55:43.933Z,2.67
2023-05-14T17:58:13.776Z,1.95
2023-05-14T18:00:41.768Z,2.22
2023-05-14T18:03:09.260Z,3.17
2023-05-14T18:05:37.291Z,3.60
2023-05-14T18:08:04.587Z,2.80
2023-05-14T18:10:31.817Z,1.80
2023-05-14T18:12:59.299Z,2.20
2023-05-14T18:15:27.561Z,2.10
2023-05-14T18:17:54.921Z,2.10
2023-05-14T18:20:22.214Z,1.85
2023-05-14T18:22:50.816Z,2.30
2023-05-14T18:25:18.164Z,2.33
2023-05-14T18:27:45.707Z,2.30
2023-05-14T18:30:17.001Z,2.30
2023-05-14T18:32:45.174Z,2.45
2023-05-14T18:35:13.680Z,2.00
2023-05-14T18:37:41.219Z,2.08
2023-05-14T18:40:09.143Z,1.92
2023-05-14T18:42:36.428Z,1.95
2023-05-14T18:45:04.574Z,2.13
2023-05-14T18:47:33.130Z,2.00
2023-05-14T18:50:02.183Z,1.92
2023-05-14T18:52:29.886Z,2.00
2023-05-14T18:54:57.178Z,2.10
2023-05-14T18:57:25.341Z,2.13
2023-05-14T18:59:52.647Z,2.20
2023-05-14T19:02:19.903Z,2.40
2023-05-14T19:07:17.175Z,2.20
2023-05-14T19:09:44.282Z,2.25
2023-05-14T19:12:11.428Z,2.25
2023-05-14T19:14:38.516Z,2.22
2023-05-14T19:17:05.996Z,2.30
2023-05-14T19:19:33.098Z,2.38
2023-05-14T19:22:00.526Z,2.50
2023-05-14T19:24:27.637Z,2.58
2023-05-14T19:26:54.722Z,2.30
2023-05-14T19:29:21.942Z,2.40
2023-05-14T19:31:49.644Z,2.55
2023-05-14T19:34:16.835Z,2.40
2023-05-14T19:36:44.017Z,2.53
2023-05-14T19:39:11.297Z,2.60
2023-05-14T19:41:38.712Z,2.72
2023-05-14T19:44:05.845Z,2.40
2023-05-14T19:46:33.154Z,2.35
2023-05-14T19:49:00.650Z,2.30
2023-05-14T19:51:27.756Z,2.53
2023-05-14T19:53:54.999Z,2.40
2023-05-14T19:56:23.193Z,2.50
2023-05-14T19:58:51.452Z,3.08
2023-05-14T20:01:19.487Z,2.80
2023-05-14T20:03:47.151Z,2.55
2023-05-14T20:06:14.718Z,2.47
2023-05-14T20:08:41.879Z,2.63
2023-05-14T20:11:09.021Z,2.78
2023-05-14T20:13:36.964Z,2.78
2023-05-14T20:16:04.189Z,2.80
2023-05-14T20:18:31.434Z,2.80
2023-05-14T20:21:01.446Z,2.60
2023-05-14T20:23:28.618Z,2.40
2023-05-14T20:25:55.921Z,2.60
2023-05-14T20:28:23.002Z,2.60
2023-05-14T20:30:50.110Z,2.50
2023-05-14T20:33:17.315Z,2.95
2023-05-14T20:35:44.614Z,2.50
2023-05-14T20:38:13.012Z,2.60
2023-05-14T20:40:40.387Z,2.78
2023-05-14T20:43:07.596Z,2.78
2023-05-14T20:45:34.706Z,3.05
2023-05-14T20:48:01.999Z,3.03
2023-05-14T20:50:29.204Z,2.90
2023-05-14T20:52:56.393Z,2.60
2023-05-14T20:55:23.608Z,2.95
2023-05-14T20:57:51.160Z,2.78
2023-05-14T21:00:18.773Z,2.92
2023-05-14T21:02:46.691Z,2.85
2023-05-14T21:05:14.291Z,2.97
2023-05-14T21:07:41.362Z,3.03
2023-05-14T21:10:09.323Z,3.15
2023-05-14T21:12:36.500Z,2.90
2023-05-14T21:15:03.788Z,3.20
2023-05-14T21:17:31.214Z,2.88
2023-05-14T21:19:58.336Z,3.20
2023-05-14T21:22:25.688Z,2.88
2023-05-14T21:24:52.809Z,3.00
2023-05-14T21:27:19.949Z,2.63
2023-05-14T21:29:48.554Z,3.58
2023-05-14T21:32:15.813Z,3.53
2023-05-14T21:34:43.646Z,4.13
2023-05-14T21:37:10.880Z,4.25
2023-05-14T21:39:37.968Z,4.20
2023-05-14T21:42:05.389Z,4.20
2023-05-14T21:44:32.522Z,4.28
2023-05-14T21:46:59.858Z,4.68
2023-05-14T21:49:27.108Z,4.60
2023-05-14T21:51:54.800Z,4.57
2023-05-14T21:54:22.065Z,4.30
2023-05-14T21:56:49.219Z,4.35
2023-05-14T21:59:16.440Z,4.53
2023-05-14T22:04:13.663Z,4.10
2023-05-14T22:06:41.081Z,4.70
2023-05-14T22:09:11.343Z,6.10
2023-05-14T22:11:38.471Z,6.30
2023-05-14T22:14:05.510Z,5.90
2023-05-14T22:16:33.264Z,6.03
2023-05-14T22:19:00.410Z,6.28
2023-05-14T22:21:27.420Z,6.00
2023-05-14T22:23:54.581Z,6.43
2023-05-14T22:26:24.371Z,6.10
2023-05-14T22:28:52.687Z,6.20
2023-05-14T22:31:19.900Z,5.43
2023-05-14T22:33:46.954Z,6.20
2023-05-14T22:36:14.071Z,5.60
2023-05-14T22:38:43.922Z,4.70
2023-05-14T22:41:11.155Z,5.07
2023-05-14T22:43:38.267Z,5.60
2023-05-14T22:46:05.406Z,5.38
2023-05-14T22:48:32.503Z,5.25
2023-05-14T22:50:59.554Z,5.03
2023-05-14T22:53:26.710Z,4.50
2023-05-14T22:55:53.786Z,5.05
2023-05-14T22:58:20.831Z,4.85
2023-05-14T23:00:48.069Z,4.47
2023-05-14T23:03:15.095Z,4.32
2023-05-14T23:05:42.119Z,4.38
2023-05-14T23:08:09.266Z,4.85
2023-05-14T23:10:36.242Z,4.95
2023-05-14T23:13:03.953Z,4.75
2023-05-14T23:15:31.239Z,4.75
2023-05-14T23:17:58.490Z,5.00
2023-05-14T23:20:25.717Z,5.15
2023-05-14T23:22:54.203Z,4.82
2023-05-14T23:25:21.323Z,5.03
2023-05-14T23:27:50.170Z,5.82
2023-05-14T23:30:17.317Z,5.47
2023-05-14T23:32:44.410Z,5.47
2023-05-14T23:35:11.445Z,4.97
2023-05-14T23:37:42.730Z,5.25
2023-05-14T23:40:10.135Z,5.55
2023-05-14T23:42:37.158Z,5.25
2023-05-14T23:45:05.467Z,5.18
2023-05-14T23:47:32.772Z,4.95
2023-05-14T23:49:59.926Z,4.85
2023-05-14T23:52:27.049Z,5.30
2023-05-14T23:54:54.357Z,5.00
2023-05-14T23:57:21.512Z,5.75
2023-05-14T23:59:48.541Z,5.85
